Time;durP1;ratioP1;P1;durP2;ratioP2;P2;SDS_P1;SDS_P2;PMS_P1;PMS_P2;Temp;Humidity;BMP_temperature;BMP_pressure;BME280_temperature;BME280_humidity;BME280_pressure;Samples;Min_cycle;Max_cycle;Signal;HPM_P1;HPM_P2
2021/08/17 00:00:10;;;;;;;;;;;12.80;99.90;;;;;;5052856;28;19920;-82
2021/08/17 00:02:36;;;;;;;;;;;12.80;99.90;;;;;;5069829;28;20371;-81
2021/08/17 00:05:03;;;;;;;;;;;12.80;99.90;;;;;;5066240;28;20047;-82
2021/08/17 00:07:29;;;;;;;;;;;12.80;99.90;;;;;;5068362;28;19920;-81
2021/08/17 00:09:55;;;;;;;;;;;12.90;99.90;;;;;;5043127;28;20455;-82
2021/08/17 00:12:21;;;;;;;;;;;12.80;99.90;;;;;;5089534;28;20003;-82
2021/08/17 00:14:48;;;;;;;;;;;13.00;99.90;;;;;;5034740;28;20353;-82
2021/08/17 00:17:14;;;;;;;;;;;12.90;99.90;;;;;;5062162;28;19920;-81
2021/08/17 00:19:40;;;;;;;;;;;12.90;99.90;;;;;;5053792;28;19959;-81
2021/08/17 00:22:07;;;;;;;;;;;12.90;99.90;;;;;;5066546;28;19924;-82
2021/08/17 00:24:33;;;;;;;;;;;13.00;99.90;;;;;;5060820;28;20149;-82
2021/08/17 00:26:59;;;;;;;;;;;12.90;99.90;;;;;;5069980;28;19946;-81
2021/08/17 00:29:24;;;;;;;;;;;13.00;99.90;;;;;;5067722;28;20379;-82
2021/08/17 00:31:53;;;;;;;;;;;13.10;99.90;;;;;;5071790;28;19931;-82
2021/08/17 00:34:19;;;;;;;;;;;13.10;99.90;;;;;;5063601;28;19920;-81
2021/08/17 00:36:45;;;;;;;;;;;13.20;99.90;;;;;;5053261;28;19925;-81
2021/08/17 00:39:11;;;;;;;;;;;13.20;99.90;;;;;;5044564;28;19960;-82
2021/08/17 00:41:37;;;;;;;;;;;13.10;99.90;;;;;;5072987;28;19967;-81
2021/08/17 00:44:16;;;;;;;;;;;13.30;99.90;;;;;;5091329;28;19927;-82
2021/08/17 00:46:43;;;;;;;;;;;13.30;99.90;;;;;;5065014;28;19928;-81
2021/08/17 00:49:09;;;;;;;;;;;13.40;99.90;;;;;;5049784;28;19927;-81
2021/08/17 00:51:35;;;;;;;;;;;13.30;99.90;;;;;;5089983;28;19928;-81
2021/08/17 00:54:01;;;;;;;;;;;13.40;99.90;;;;;;5089592;28;19928;-82
2021/08/17 00:56:27;;;;;;;;;;;13.50;99.90;;;;;;5062114;28;19977;-81
2021/08/17 00:58:52;;;;;;;;;;;13.50;99.90;;;;;;5064781;28;19924;-81
2021/08/17 01:01:19;;;;;;;;;;;13.50;99.90;;;;;;5083731;28;20321;-82
2021/08/17 01:03:48;;;;;;;;;;;13.50;99.90;;;;;;5056186;28;19924;-81
2021/08/17 01:06:19;;;;;;;;;;;13.50;99.90;;;;;;5057794;28;19970;-82
2021/08/17 01:08:45;;;;;;;;;;;13.50;99.90;;;;;;5058407;28;20015;-82
2021/08/17 01:11:11;;;;;;;;;;;13.50;99.90;;;;;;5082437;28;19993;-81
2021/08/17 01:13:36;;;;;;;;;;;13.50;99.90;;;;;;5042382;28;20470;-82
2021/08/17 01:16:02;;;;;;;;;;;13.50;99.90;;;;;;5055141;28;19924;-82
2021/08/17 01:18:28;;;;;;;;;;;13.40;99.90;;;;;;5036186;28;19931;-82
2021/08/17 01:20:54;;;;;;;;;;;13.40;99.90;;;;;;5068500;28;19947;-82
2021/08/17 01:23:24;;;;;;;;;;;13.30;99.90;;;;;;5069816;28;19924;-81
2021/08/17 01:25:53;;;;;;;;;;;13.30;99.90;;;;;;5057372;28;19947;-82
2021/08/17 01:28:19;;;;;;;;;;;13.30;99.90;;;;;;5069369;28;20380;-83
2021/08/17 01:30:45;;;;;;;;;;;13.30;99.90;;;;;;5053351;28;19920;-83
2021/08/17 01:33:14;;;;;;;;;;;13.20;99.90;;;;;;5033573;28;20023;-83
2021/08/17 01:35:39;;;;;;;;;;;13.20;99.90;;;;;;5043040;28;19920;-83
2021/08/17 01:38:05;;;;;;;;;;;13.20;99.90;;;;;;5041097;28;19925;-84
2021/08/17 01:40:31;;;;;;;;;;;13.30;99.90;;;;;;5036102;28;19925;-84
2021/08/17 01:42:57;;;;;;;;;;;13.30;99.90;;;;;;5069305;28;20268;-84
2021/08/17 01:45:23;;;;;;;;;;;13.30;99.90;;;;;;5088328;28;19931;-83
2021/08/17 01:47:50;;;;;;;;;;;13.30;99.90;;;;;;5046445;28;19925;-84
2021/08/17 01:50:16;;;;;;;;;;;13.30;99.90;;;;;;5065345;28;19974;-83
2021/08/17 01:52:42;;;;;;;;;;;13.30;99.90;;;;;;5064762;28;19929;-84
2021/08/17 01:55:09;;;;;;;;;;;13.20;99.90;;;;;;5049825;28;20011;-84
2021/08/17 01:57:35;;;;;;;;;;;13.30;99.90;;;;;;5045073;28;19964;-83
2021/08/17 02:00:01;;;;;;;;;;;13.30;99.90;;;;;;5070634;28;19963;-84
2021/08/17 02:02:27;;;;;;;;;;;13.30;99.90;;;;;;5023229;28;20426;-83
2021/08/17 02:04:53;;;;;;;;;;;13.20;99.90;;;;;;5031960;28;19968;-84
2021/08/17 02:07:18;;;;;;;;;;;13.30;99.90;;;;;;5066228;28;19935;-83
2021/08/17 02:09:44;;;;;;;;;;;13.30;99.90;;;;;;5030991;28;19995;-83
2021/08/17 02:12:10;;;;;;;;;;;13.40;99.90;;;;;;5059986;28;19972;-83
2021/08/17 02:14:36;;;;;;;;;;;13.30;99.90;;;;;;5052738;28;19932;-83
2021/08/17 02:17:02;;;;;;;;;;;13.30;99.90;;;;;;5028180;28;20016;-83
2021/08/17 02:19:27;;;;;;;;;;;13.40;99.90;;;;;;5026649;28;20438;-84
2021/08/17 02:21:53;;;;;;;;;;;13.40;99.90;;;;;;5018911;28;20005;-84
2021/08/17 02:24:19;;;;;;;;;;;13.40;99.90;;;;;;5047906;28;19924;-83
2021/08/17 02:26:45;;;;;;;;;;;13.40;99.90;;;;;;5018115;28;19954;-83
2021/08/17 02:29:11;;;;;;;;;;;13.40;99.90;;;;;;5020523;28;20528;-83
2021/08/17 02:31:36;;;;;;;;;;;13.40;99.90;;;;;;5045299;28;19967;-85
2021/08/17 02:34:02;;;;;;;;;;;13.30;99.90;;;;;;5035742;28;20051;-83
2021/08/17 02:36:29;;;;;;;;;;;13.30;99.90;;;;;;5045821;28;19925;-84
2021/08/17 02:38:55;;;;;;;;;;;13.30;99.90;;;;;;5042460;28;19920;-83
2021/08/17 02:41:20;;;;;;;;;;;13.30;99.90;;;;;;5047123;28;20536;-84
2021/08/17 02:43:50;;;;;;;;;;;13.30;99.90;;;;;;5047955;28;20337;-84
2021/08/17 02:46:15;;;;;;;;;;;13.30;99.90;;;;;;5061371;28;19928;-82
2021/08/17 02:48:45;;;;;;;;;;;13.30;99.90;;;;;;5015847;28;19960;-83
2021/08/17 02:51:11;;;;;;;;;;;13.30;99.90;;;;;;5054186;28;20020;-84
2021/08/17 02:53:37;;;;;;;;;;;13.30;99.90;;;;;;5045051;28;19959;-83
2021/08/17 02:56:26;;;;;;;;;;;13.30;99.90;;;;;;5033366;28;20453;-84
2021/08/17 02:58:51;;;;;;;;;;;13.30;99.90;;;;;;5058798;28;19931;-84
2021/08/17 03:01:17;;;;;;;;;;;13.40;99.90;;;;;;5034876;28;20370;-83
2021/08/17 03:03:43;;;;;;;;;;;13.40;99.90;;;;;;5047846;28;20502;-83
2021/08/17 03:06:09;;;;;;;;;;;13.40;99.90;;;;;;5031367;28;19920;-84
2021/08/17 03:08:34;;;;;;;;;;;13.40;99.90;;;;;;5066604;28;20303;-83
2021/08/17 03:11:00;;;;;;;;;;;13.40;99.90;;;;;;5047490;28;20404;-83
2021/08/17 03:13:26;;;;;;;;;;;13.50;99.90;;;;;;5034273;28;20009;-84
2021/08/17 03:15:51;;;;;;;;;;;13.50;99.90;;;;;;5034269;28;19942;-85
2021/08/17 03:18:17;;;;;;;;;;;13.50;99.90;;;;;;5034443;28;19932;-83
2021/08/17 03:20:43;;;;;;;;;;;13.60;99.90;;;;;;5051274;28;19921;-84
2021/08/17 03:23:09;;;;;;;;;;;13.60;99.90;;;;;;5049369;28;20387;-84
2021/08/17 03:25:35;;;;;;;;;;;13.60;99.90;;;;;;5033673;28;20917;-84
2021/08/17 03:28:01;;;;;;;;;;;13.60;99.90;;;;;;5032681;28;19928;-84
2021/08/17 03:30:27;;;;;;;;;;;13.60;99.90;;;;;;5050210;28;19993;-84
2021/08/17 03:32:52;;;;;;;;;;;13.70;99.90;;;;;;5050910;28;19946;-84
2021/08/17 03:35:19;;;;;;;;;;;13.60;99.90;;;;;;5051364;28;20371;-84
2021/08/17 03:37:45;;;;;;;;;;;13.70;99.90;;;;;;5048283;28;19924;-84
2021/08/17 03:40:12;;;;;;;;;;;13.60;99.90;;;;;;5027900;28;19935;-83
2021/08/17 03:42:39;;;;;;;;;;;13.70;99.90;;;;;;5046002;28;19974;-82
2021/08/17 03:45:06;;;;;;;;;;;13.70;99.90;;;;;;5056103;28;19925;-83
2021/08/17 03:47:32;;;;;;;;;;;13.70;99.90;;;;;;5049725;28;19924;-84
2021/08/17 03:50:06;;;;;;;;;;;13.70;99.90;;;;;;5033489;28;19928;-83
2021/08/17 03:52:33;;;;;;;;;;;13.70;99.90;;;;;;5048768;28;19932;-84
2021/08/17 03:54:59;;;;;;;;;;;13.70;99.90;;;;;;5073972;28;20014;-84
2021/08/17 03:57:25;;;;;;;;;;;13.70;99.90;;;;;;5060461;28;19929;-83
2021/08/17 03:59:51;;;;;;;;;;;13.80;99.90;;;;;;5038367;28;19946;-83
2021/08/17 04:02:16;;;;;;;;;;;13.70;99.90;;;;;;5046259;28;19950;-83
2021/08/17 04:04:42;;;;;;;;;;;13.80;99.90;;;;;;5074102;28;19924;-83
2021/08/17 04:07:08;;;;;;;;;;;13.80;99.90;;;;;;5064265;28;19974;-84
2021/08/17 04:09:34;;;;;;;;;;;13.80;99.90;;;;;;5085487;28;19934;-83
2021/08/17 04:12:00;;;;;;;;;;;13.80;99.90;;;;;;5072788;28;20650;-83
2021/08/17 04:14:26;;;;;;;;;;;13.90;99.90;;;;;;5055411;28;19920;-84
2021/08/17 04:16:56;;;;;;;;;;;14.00;99.90;;;;;;5049879;28;20302;-83
2021/08/17 04:19:23;;;;;;;;;;;14.10;99.90;;;;;;5066901;28;19931;-84
2021/08/17 04:21:49;;;;;;;;;;;14.10;99.90;;;;;;5070793;28;20295;-84
2021/08/17 04:24:14;;;;;;;;;;;14.20;99.90;;;;;;5074179;28;19973;-83
2021/08/17 04:26:40;;;;;;;;;;;14.20;99.90;;;;;;5068884;28;19920;-84
2021/08/17 04:29:09;;;;;;;;;;;14.30;99.90;;;;;;5067622;28;19928;-84
2021/08/17 04:31:35;;;;;;;;;;;14.30;99.90;;;;;;5066314;28;19966;-83
2021/08/17 04:34:01;;;;;;;;;;;14.30;99.90;;;;;;5058231;28;20871;-83
2021/08/17 04:36:27;;;;;;;;;;;14.40;99.90;;;;;;5090239;28;20337;-82
2021/08/17 04:38:53;;;;;;;;;;;14.40;99.90;;;;;;5067296;28;20444;-84
2021/08/17 04:41:19;;;;;;;;;;;14.40;99.90;;;;;;5049635;28;19924;-83
2021/08/17 04:43:46;;;;;;;;;;;14.40;99.90;;;;;;5087300;28;19916;-83
2021/08/17 04:46:12;;;;;;;;;;;14.30;99.90;;;;;;5063108;28;19921;-83
2021/08/17 04:48:37;;;;;;;;;;;14.40;99.90;;;;;;5060846;28;19955;-81
2021/08/17 04:51:04;;;;;;;;;;;14.40;99.90;;;;;;5086875;28;20047;-82
2021/08/17 04:53:30;;;;;;;;;;;14.40;99.90;;;;;;5069378;28;20423;-82
2021/08/17 04:55:56;;;;;;;;;;;14.40;99.90;;;;;;5070434;28;19932;-82
2021/08/17 04:58:23;;;;;;;;;;;14.40;99.90;;;;;;5070875;28;20387;-81
2021/08/17 05:00:51;;;;;;;;;;;14.40;99.90;;;;;;5091130;28;20297;-83
2021/08/17 05:03:19;;;;;;;;;;;14.40;99.90;;;;;;5030164;28;19920;-82
2021/08/17 05:05:44;;;;;;;;;;;14.50;99.90;;;;;;5054284;28;19924;-82
2021/08/17 05:08:10;;;;;;;;;;;14.50;99.90;;;;;;5071476;28;20314;-82
2021/08/17 05:10:36;;;;;;;;;;;14.60;99.90;;;;;;5072510;28;19986;-80
2021/08/17 05:13:08;;;;;;;;;;;14.60;99.90;;;;;;5082837;28;19932;-82
2021/08/17 05:15:44;;;;;;;;;;;14.60;99.90;;;;;;5056265;28;19987;-81
2021/08/17 05:18:10;;;;;;;;;;;14.60;99.90;;;;;;5062435;28;19974;-82
2021/08/17 05:20:36;;;;;;;;;;;14.60;99.90;;;;;;5068162;28;19964;-81
2021/08/17 05:23:02;;;;;;;;;;;14.70;99.90;;;;;;5068894;28;20023;-81
2021/08/17 05:25:28;;;;;;;;;;;14.70;99.90;;;;;;5059082;28;19978;-82
2021/08/17 05:27:54;;;;;;;;;;;14.70;99.90;;;;;;5069469;28;19924;-81
2021/08/17 05:30:19;;;;;;;;;;;14.70;99.90;;;;;;5081923;28;19964;-82
2021/08/17 05:32:45;;;;;;;;;;;14.70;99.90;;;;;;5051626;28;19970;-84
2021/08/17 05:35:11;;;;;;;;;;;14.70;99.90;;;;;;5045670;28;20383;-83
2021/08/17 05:37:37;;;;;;;;;;;14.80;99.90;;;;;;5068834;28;19928;-83
2021/08/17 05:40:04;;;;;;;;;;;14.80;99.90;;;;;;5079928;28;19931;-83
2021/08/17 05:42:33;;;;;;;;;;;14.70;99.90;;;;;;5044560;28;20015;-83
2021/08/17 05:44:59;;;;;;;;;;;14.80;99.90;;;;;;5062900;28;19951;-82
2021/08/17 05:47:25;;;;;;;;;;;14.80;99.90;;;;;;5042885;28;20291;-82
2021/08/17 05:49:51;;;;;;;;;;;14.70;99.90;;;;;;5062949;28;19925;-81
2021/08/17 05:52:17;;;;;;;;;;;14.80;99.90;;;;;;5030969;28;19934;-82
2021/08/17 05:54:43;;;;;;;;;;;14.70;99.90;;;;;;5065361;28;19928;-81
2021/08/17 05:57:09;;;;;;;;;;;14.80;99.90;;;;;;5060216;28;20030;-82
2021/08/17 05:59:35;;;;;;;;;;;14.80;99.90;;;;;;5045129;28;19975;-82
2021/08/17 06:02:05;;;;;;;;;;;14.70;99.90;;;;;;5048391;28;19924;-83
2021/08/17 06:04:31;;;;;;;;;;;14.70;99.90;;;;;;5074821;28;19928;-82
2021/08/17 06:06:57;;;;;;;;;;;14.80;99.90;;;;;;5066276;28;19931;-83
2021/08/17 06:09:22;;;;;;;;;;;14.70;99.90;;;;;;5065226;28;20307;-82
2021/08/17 06:11:50;;;;;;;;;;;14.80;99.90;;;;;;5057853;28;19924;-82
2021/08/17 06:14:16;;;;;;;;;;;14.80;99.90;;;;;;5065776;28;19920;-82
2021/08/17 06:16:42;;;;;;;;;;;14.90;99.90;;;;;;5082373;28;19924;-81
2021/08/17 06:19:07;;;;;;;;;;;14.90;99.90;;;;;;5051452;28;19928;-81
2021/08/17 06:21:34;;;;;;;;;;;14.90;99.90;;;;;;5070421;28;19932;-82
2021/08/17 06:24:00;;;;;;;;;;;15.00;99.90;;;;;;5075536;28;19919;-82
2021/08/17 06:26:26;;;;;;;;;;;15.00;99.90;;;;;;5067671;28;19925;-81
2021/08/17 06:28:52;;;;;;;;;;;15.10;99.90;;;;;;5064167;28;19924;-82
2021/08/17 06:31:22;;;;;;;;;;;15.10;99.90;;;;;;5049268;28;19924;-82
2021/08/17 06:34:06;;;;;;;;;;;15.10;99.90;;;;;;5067852;28;19931;-81
2021/08/17 06:36:32;;;;;;;;;;;15.10;99.90;;;;;;5051064;28;20299;-83
2021/08/17 06:38:57;;;;;;;;;;;15.10;99.90;;;;;;5063829;28;19924;-82
2021/08/17 06:41:23;;;;;;;;;;;15.20;99.90;;;;;;5082180;28;19981;-82
2021/08/17 06:43:52;;;;;;;;;;;15.20;99.90;;;;;;5054220;28;19935;-82
2021/08/17 06:46:18;;;;;;;;;;;15.20;99.90;;;;;;5068969;28;19924;-82
2021/08/17 06:48:44;;;;;;;;;;;15.20;99.90;;;;;;5053907;28;19985;-82
2021/08/17 06:51:10;;;;;;;;;;;15.30;99.90;;;;;;5061756;28;19956;-82
2021/08/17 06:53:37;;;;;;;;;;;15.30;99.90;;;;;;5069798;28;19978;-81
2021/08/17 06:56:03;;;;;;;;;;;15.30;99.90;;;;;;5063992;28;19974;-82
2021/08/17 06:58:29;;;;;;;;;;;15.40;99.90;;;;;;5068251;28;20372;-83
2021/08/17 07:00:55;;;;;;;;;;;15.50;99.90;;;;;;5067640;28;19924;-83
2021/08/17 07:03:20;;;;;;;;;;;15.50;99.90;;;;;;5051745;28;19959;-81
2021/08/17 07:05:46;;;;;;;;;;;15.60;99.90;;;;;;5052464;28;19950;-81
2021/08/17 07:08:13;;;;;;;;;;;15.60;99.90;;;;;;5076127;28;19931;-82
2021/08/17 07:10:39;;;;;;;;;;;15.70;99.90;;;;;;5051530;28;19967;-82
2021/08/17 07:13:04;;;;;;;;;;;15.70;99.90;;;;;;5069933;28;19960;-83
2021/08/17 07:15:30;;;;;;;;;;;15.80;99.90;;;;;;5067942;28;20328;-82
2021/08/17 07:17:56;;;;;;;;;;;15.80;99.90;;;;;;5069993;28;19927;-81
2021/08/17 07:20:22;;;;;;;;;;;15.80;99.90;;;;;;5057534;28;20035;-83
2021/08/17 07:22:48;;;;;;;;;;;15.90;99.90;;;;;;5064865;28;20011;-82
2021/08/17 07:25:14;;;;;;;;;;;15.90;99.90;;;;;;5045817;28;19928;-84
2021/08/17 07:27:58;;;;;;;;;;;15.90;99.90;;;;;;5062533;28;19928;-83
2021/08/17 07:30:27;;;;;;;;;;;16.00;99.90;;;;;;5055694;28;20389;-84
2021/08/17 07:32:55;;;;;;;;;;;16.00;99.90;;;;;;5079327;28;19999;-83
2021/08/17 07:35:21;;;;;;;;;;;16.00;99.90;;;;;;5069900;28;20458;-82
2021/08/17 07:37:47;;;;;;;;;;;16.10;99.90;;;;;;5053324;28;19931;-82
2021/08/17 07:40:14;;;;;;;;;;;16.10;99.90;;;;;;5082415;28;19931;-82
2021/08/17 07:42:44;;;;;;;;;;;16.20;99.90;;;;;;5063793;28;20043;-82
2021/08/17 07:45:15;;;;;;;;;;;16.20;99.90;;;;;;5064738;28;19927;-82
2021/08/17 07:47:42;;;;;;;;;;;16.20;99.90;;;;;;5074937;28;19924;-81
2021/08/17 07:50:11;;;;;;;;;;;16.20;99.90;;;;;;5065266;28;19924;-81
2021/08/17 07:52:37;;;;;;;;;;;16.20;99.90;;;;;;5061800;28;19921;-82
2021/08/17 07:55:08;;;;;;;;;;;16.20;99.90;;;;;;5068729;28;19939;-81
2021/08/17 07:57:33;;;;;;;;;;;16.20;99.90;;;;;;5071160;28;19927;-82
2021/08/17 07:59:59;;;;;;;;;;;16.20;99.90;;;;;;5086720;28;19920;-81
2021/08/17 08:02:25;;;;;;;;;;;16.20;99.90;;;;;;5068866;28;20439;-81
2021/08/17 08:04:51;;;;;;;;;;;16.20;99.90;;;;;;5067602;28;20353;-81
2021/08/17 08:07:19;;;;;;;;;;;16.20;99.90;;;;;;5077135;28;19960;-82
2021/08/17 08:09:45;;;;;;;;;;;16.20;99.90;;;;;;5050843;28;19921;-81
2021/08/17 08:12:13;;;;;;;;;;;16.20;99.90;;;;;;5083582;28;20012;-81
2021/08/17 08:14:42;;;;;;;;;;;16.20;99.90;;;;;;5072849;28;19967;-81
2021/08/17 08:17:11;;;;;;;;;;;16.20;99.90;;;;;;5072354;28;19924;-82
2021/08/17 08:19:37;;;;;;;;;;;16.30;99.90;;;;;;5053972;28;19931;-82
2021/08/17 08:22:04;;;;;;;;;;;16.30;99.90;;;;;;5069323;28;20426;-82
2021/08/17 08:24:30;;;;;;;;;;;16.40;99.90;;;;;;5052787;28;19920;-81
2021/08/17 08:26:56;;;;;;;;;;;16.40;99.90;;;;;;5081391;28;19924;-82
2021/08/17 08:29:22;;;;;;;;;;;16.50;99.90;;;;;;5090085;28;19931;-83
2021/08/17 08:31:50;;;;;;;;;;;16.60;99.90;;;;;;5051968;28;19928;-82
2021/08/17 08:34:16;;;;;;;;;;;16.60;99.90;;;;;;5035829;28;19921;-82
2021/08/17 08:36:42;;;;;;;;;;;16.60;99.90;;;;;;5054585;28;19994;-82
2021/08/17 08:39:08;;;;;;;;;;;16.60;99.90;;;;;;5045141;28;20422;-82
2021/08/17 08:41:34;;;;;;;;;;;16.70;99.90;;;;;;5052227;28;19971;-82
2021/08/17 08:44:00;;;;;;;;;;;16.70;99.90;;;;;;5068768;28;19924;-82
2021/08/17 08:46:29;;;;;;;;;;;16.70;99.90;;;;;;5056379;28;19928;-81
2021/08/17 08:48:58;;;;;;;;;;;16.70;99.90;;;;;;5075325;28;20010;-82
2021/08/17 08:51:24;;;;;;;;;;;16.70;99.90;;;;;;5087933;28;20006;-83
2021/08/17 08:53:53;;;;;;;;;;;16.80;99.90;;;;;;5086029;28;19924;-82
2021/08/17 08:56:19;;;;;;;;;;;16.80;99.90;;;;;;5076206;28;19946;-82
2021/08/17 08:58:45;;;;;;;;;;;16.80;99.90;;;;;;5056536;28;19920;-82
2021/08/17 09:01:19;;;;;;;;;;;16.80;99.90;;;;;;5089148;28;20341;-83
2021/08/17 09:03:49;;;;;;;;;;;16.90;99.90;;;;;;5072384;28;19921;-82
2021/08/17 09:06:15;;;;;;;;;;;16.90;99.90;;;;;;5075872;28;19920;-83
2021/08/17 09:08:41;;;;;;;;;;;16.80;99.90;;;;;;5093194;28;19973;-82
2021/08/17 09:11:33;;;;;;;;;;;16.80;99.90;;;;;;5093500;28;20387;-83
2021/08/17 09:14:17;;;;;;;;;;;16.80;99.90;;;;;;5089193;28;20198;-83
2021/08/17 09:16:44;;;;;;;;;;;16.90;99.90;;;;;;5075196;28;19923;-83
2021/08/17 09:19:48;;;;;;;;;;;16.90;99.90;;;;;;5065995;28;19920;-82
2021/08/17 09:22:20;;;;;;;;;;;16.90;99.90;;;;;;5063874;28;19920;-81
2021/08/17 09:24:51;;;;;;;;;;;16.90;99.90;;;;;;5063754;28;19930;-81
2021/08/17 09:27:27;;;;;;;;;;;16.90;99.90;;;;;;5057390;28;20393;-82
2021/08/17 09:30:16;;;;;;;;;;;17.00;99.90;;;;;;5087059;28;19940;-83
2021/08/17 09:32:49;;;;;;;;;;;17.00;99.90;;;;;;5075162;28;20877;-81
2021/08/17 09:35:16;;;;;;;;;;;17.00;99.90;;;;;;5093599;28;20317;-82
2021/08/17 09:37:42;;;;;;;;;;;16.90;99.90;;;;;;5093818;28;19917;-82
2021/08/17 09:40:08;;;;;;;;;;;16.90;99.90;;;;;;5094032;28;19924;-82
2021/08/17 09:42:35;;;;;;;;;;;16.90;99.90;;;;;;5057334;28;19916;-82
2021/08/17 09:45:06;;;;;;;;;;;16.90;99.90;;;;;;5069616;28;19991;-82
2021/08/17 09:47:33;;;;;;;;;;;16.90;99.90;;;;;;5058276;28;19932;-82
2021/08/17 09:50:18;;;;;;;;;;;16.90;99.90;;;;;;5050754;28;19982;-82
2021/08/17 09:52:47;;;;;;;;;;;16.90;99.90;;;;;;5065718;28;20345;-81
2021/08/17 09:55:21;;;;;;;;;;;16.90;99.90;;;;;;5089100;28;19928;-88
2021/08/17 09:57:47;;;;;;;;;;;17.00;99.90;;;;;;5079488;28;19932;-87
2021/08/17 10:00:15;;;;;;;;;;;17.20;99.90;;;;;;5089816;28;20375;-91
2021/08/17 10:02:42;;;;;;;;;;;17.20;99.90;;;;;;5064126;28;19935;-89
2021/08/17 10:05:08;;;;;;;;;;;17.30;99.90;;;;;;5081367;28;19952;-89
2021/08/17 10:07:34;;;;;;;;;;;17.30;99.90;;;;;;5065428;28;19924;-89
2021/08/17 10:10:00;;;;;;;;;;;17.30;99.90;;;;;;5053102;28;20398;-89
2021/08/17 10:12:26;;;;;;;;;;;17.40;99.90;;;;;;5031190;28;20010;-89
2021/08/17 10:14:52;;;;;;;;;;;17.40;99.90;;;;;;5080977;28;19927;-89
2021/08/17 10:17:17;;;;;;;;;;;17.40;99.90;;;;;;5079080;28;20486;-88
2021/08/17 10:19:46;;;;;;;;;;;17.30;99.90;;;;;;5065513;28;20399;-89
2021/08/17 10:22:15;;;;;;;;;;;17.30;99.90;;;;;;5092294;28;19967;-88
2021/08/17 10:24:41;;;;;;;;;;;17.30;99.90;;;;;;5082305;28;19927;-88
2021/08/17 10:27:22;;;;;;;;;;;17.30;99.90;;;;;;5074780;28;19928;-87
2021/08/17 10:30:11;;;;;;;;;;;17.30;99.90;;;;;;5085423;28;19943;-88
2021/08/17 10:32:56;;;;;;;;;;;17.30;99.90;;;;;;5077875;28;20410;-89
2021/08/17 10:35:34;;;;;;;;;;;17.40;99.90;;;;;;5058378;28;19938;-88
2021/08/17 10:38:06;;;;;;;;;;;17.50;99.90;;;;;;5076010;28;19920;-88
2021/08/17 10:40:52;;;;;;;;;;;17.60;99.90;;;;;;5073820;28;19920;-89
2021/08/17 10:43:27;;;;;;;;;;;17.60;99.90;;;;;;5091083;28;20019;-89
2021/08/17 10:45:59;;;;;;;;;;;17.60;99.90;;;;;;5072702;28;19924;-89
2021/08/17 10:48:43;;;;;;;;;;;17.60;99.90;;;;;;5083174;28;19931;-86
2021/08/17 10:51:10;;;;;;;;;;;17.60;99.90;;;;;;5080011;28;19942;-88
2021/08/17 10:53:37;;;;;;;;;;;17.60;99.90;;;;;;5081349;28;19928;-88
2021/08/17 10:56:33;;;;;;;;;;;17.60;99.90;;;;;;5066827;28;19935;-90
2021/08/17 10:58:59;;;;;;;;;;;17.70;99.90;;;;;;5058995;28;19916;-89
2021/08/17 11:01:31;;;;;;;;;;;17.80;99.90;;;;;;5100120;28;19920;-87
2021/08/17 11:04:08;;;;;;;;;;;17.90;99.90;;;;;;5079530;28;19921;-88
2021/08/17 11:06:54;;;;;;;;;;;17.90;99.90;;;;;;5081614;28;19917;-89
2021/08/17 11:09:20;;;;;;;;;;;17.90;99.90;;;;;;5072275;28;19920;-89
2021/08/17 11:11:47;;;;;;;;;;;17.90;99.90;;;;;;5063074;28;20006;-88
2021/08/17 11:14:24;;;;;;;;;;;18.00;99.90;;;;;;5079893;28;19921;-89
2021/08/17 11:16:51;;;;;;;;;;;18.10;99.90;;;;;;5092569;28;19997;-88
2021/08/17 11:19:23;;;;;;;;;;;18.20;99.90;;;;;;5055276;28;19932;-88
2021/08/17 11:21:59;;;;;;;;;;;18.20;99.90;;;;;;5070623;28;19926;-88
2021/08/17 11:24:27;;;;;;;;;;;18.10;99.90;;;;;;5055230;28;19955;-82
2021/08/17 11:26:56;;;;;;;;;;;18.20;99.90;;;;;;5072585;28;19925;-82
2021/08/17 11:29:23;;;;;;;;;;;18.10;99.90;;;;;;5070945;28;20458;-82
2021/08/17 11:31:49;;;;;;;;;;;18.20;99.90;;;;;;5071495;28;19924;-83
2021/08/17 11:34:17;;;;;;;;;;;18.00;99.90;;;;;;5052685;28;19927;-82
2021/08/17 11:36:55;;;;;;;;;;;18.00;99.90;;;;;;5055620;28;20014;-83
2021/08/17 11:39:37;;;;;;;;;;;18.00;99.90;;;;;;5082314;28;19935;-81
2021/08/17 11:42:08;;;;;;;;;;;18.00;99.90;;;;;;5044750;28;19921;-83
2021/08/17 11:44:38;;;;;;;;;;;17.90;99.90;;;;;;5069424;28;19932;-81
2021/08/17 11:47:05;;;;;;;;;;;17.90;99.90;;;;;;5077524;28;19967;-82
2021/08/17 11:49:32;;;;;;;;;;;17.80;99.90;;;;;;5060413;28;19930;-82
2021/08/17 11:51:58;;;;;;;;;;;17.70;99.90;;;;;;5078697;28;19921;-83
2021/08/17 11:54:25;;;;;;;;;;;17.60;99.90;;;;;;5053350;28;20383;-81
2021/08/17 11:56:58;;;;;;;;;;;17.60;99.90;;;;;;5071893;28;19924;-82
2021/08/17 11:59:38;;;;;;;;;;;17.50;99.90;;;;;;5062837;28;19921;-82
2021/08/17 12:02:03;;;;;;;;;;;17.50;99.90;;;;;;5069495;28;20364;-82
2021/08/17 12:04:29;;;;;;;;;;;17.50;99.90;;;;;;5071747;28;19948;-83
2021/08/17 12:07:07;;;;;;;;;;;17.60;99.90;;;;;;5070024;28;19924;-82
2021/08/17 12:09:41;;;;;;;;;;;17.60;99.90;;;;;;5055343;28;20311;-83
2021/08/17 12:12:07;;;;;;;;;;;17.60;99.90;;;;;;5073435;28;19990;-82
2021/08/17 12:14:33;;;;;;;;;;;17.50;99.90;;;;;;5089572;28;19935;-82
2021/08/17 12:17:05;;;;;;;;;;;17.50;99.90;;;;;;5069845;28;19999;-82
2021/08/17 12:19:32;;;;;;;;;;;17.40;99.90;;;;;;5056808;28;19924;-82
2021/08/17 12:22:02;;;;;;;;;;;17.20;99.90;;;;;;5080953;28;20350;-82
2021/08/17 12:24:29;;;;;;;;;;;17.20;99.90;;;;;;5075269;28;19924;-82
2021/08/17 12:26:57;;;;;;;;;;;17.20;99.90;;;;;;5095336;28;19931;-83
2021/08/17 12:29:23;;;;;;;;;;;17.10;99.90;;;;;;5067391;28;20019;-81
2021/08/17 12:31:50;;;;;;;;;;;17.20;99.90;;;;;;5086127;28;20389;-82
2021/08/17 12:34:19;;;;;;;;;;;17.20;99.90;;;;;;5068822;28;19925;-81
2021/08/17 12:36:49;;;;;;;;;;;17.30;99.90;;;;;;5069423;28;20022;-81
2021/08/17 12:39:25;;;;;;;;;;;17.20;99.90;;;;;;5075076;28;20028;-83
2021/08/17 12:41:52;;;;;;;;;;;17.30;99.90;;;;;;5075001;28;19920;-82
2021/08/17 12:44:31;;;;;;;;;;;17.40;99.90;;;;;;5071421;28;19924;-82
2021/08/17 12:46:57;;;;;;;;;;;17.40;99.90;;;;;;5090214;28;19940;-83
2021/08/17 12:49:24;;;;;;;;;;;17.40;99.90;;;;;;5083643;28;19966;-82
2021/08/17 12:51:49;;;;;;;;;;;17.40;99.90;;;;;;5071565;28;19924;-82
2021/08/17 12:54:15;;;;;;;;;;;17.30;99.90;;;;;;5073651;28;20355;-83
2021/08/17 12:56:41;;;;;;;;;;;17.30;99.90;;;;;;5054843;28;20397;-81
2021/08/17 12:59:07;;;;;;;;;;;17.20;99.90;;;;;;5051778;28;19920;-82
2021/08/17 13:01:33;;;;;;;;;;;17.10;99.90;;;;;;5074182;28;19970;-81
2021/08/17 13:03:59;;;;;;;;;;;17.10;99.90;;;;;;5056351;28;19996;-82
2021/08/17 13:06:25;;;;;;;;;;;17.10;99.90;;;;;;5050833;28;19925;-82
2021/08/17 13:08:50;;;;;;;;;;;17.00;99.90;;;;;;5062947;28;20014;-81
2021/08/17 13:11:27;;;;;;;;;;;17.00;99.90;;;;;;5079270;28;20434;-81
2021/08/17 13:13:53;;;;;;;;;;;16.90;99.90;;;;;;5073451;28;19934;-81
2021/08/17 13:16:19;;;;;;;;;;;16.90;99.90;;;;;;5045403;28;19921;-82
2021/08/17 13:18:45;;;;;;;;;;;17.00;99.90;;;;;;5057897;28;19920;-83
2021/08/17 13:21:10;;;;;;;;;;;17.10;99.90;;;;;;5057600;28;19985;-81
2021/08/17 13:23:36;;;;;;;;;;;17.10;99.90;;;;;;5055837;28;19931;-83
2021/08/17 13:26:05;;;;;;;;;;;17.10;99.90;;;;;;5057677;28;19916;-82
2021/08/17 13:28:30;;;;;;;;;;;17.10;99.90;;;;;;5052011;28;19943;-81
2021/08/17 13:30:56;;;;;;;;;;;17.20;99.90;;;;;;5062614;28;19920;-82
2021/08/17 13:33:22;;;;;;;;;;;17.20;99.90;;;;;;5080663;28;20410;-82
2021/08/17 13:35:48;;;;;;;;;;;17.20;99.90;;;;;;5053758;28;20276;-82
2021/08/17 13:38:13;;;;;;;;;;;17.30;99.90;;;;;;5052959;28;19986;-81
2021/08/17 13:40:39;;;;;;;;;;;17.30;99.90;;;;;;5063461;28;19956;-82
2021/08/17 13:43:05;;;;;;;;;;;17.30;99.90;;;;;;5035617;28;19920;-82
2021/08/17 13:45:31;;;;;;;;;;;17.30;99.90;;;;;;5063215;28;19959;-81
2021/08/17 13:47:56;;;;;;;;;;;17.30;99.90;;;;;;5073162;28;19973;-81
2021/08/17 13:50:22;;;;;;;;;;;17.40;99.90;;;;;;5055388;28;20709;-82
2021/08/17 13:52:51;;;;;;;;;;;17.60;99.90;;;;;;5075890;28;19967;-81
2021/08/17 13:55:17;;;;;;;;;;;17.70;99.90;;;;;;5066796;28;20007;-82
2021/08/17 13:57:43;;;;;;;;;;;17.80;99.90;;;;;;5052073;28;19939;-83
2021/08/17 14:00:09;;;;;;;;;;;17.90;99.90;;;;;;5031648;28;19924;-82
2021/08/17 14:02:35;;;;;;;;;;;18.00;99.90;;;;;;5069893;28;19924;-82
2021/08/17 14:05:01;;;;;;;;;;;17.90;99.90;;;;;;5015483;28;20291;-82
2021/08/17 14:07:29;;;;;;;;;;;17.90;99.90;;;;;;5015663;28;19970;-81
2021/08/17 14:09:55;;;;;;;;;;;18.00;99.90;;;;;;5032488;28;19952;-83
2021/08/17 14:12:24;;;;;;;;;;;18.10;99.90;;;;;;5034764;28;20379;-83
2021/08/17 14:14:56;;;;;;;;;;;18.20;99.90;;;;;;5041872;28;19924;-82
2021/08/17 14:17:52;;;;;;;;;;;18.20;99.90;;;;;;5043424;28;19921;-82
2021/08/17 14:20:54;;;;;;;;;;;;;;;;;;;;;
2021/08/17 14:24:01;;;;;;;;;;;18.10;99.90;;;;;;5058334;28;19928;-82